Time;durP1;ratioP1;P1;durP2;ratioP2;P2;SDS_P1;SDS_P2;PMS_P1;PMS_P2;Temp;Humidity;BMP_temperature;BMP_pressure;BME280_temperature;BME280_humidity;BME280_pressure;Samples;Min_cycle;Max_cycle;Signal;HPM_P1;HPM_P2
2021/05/20 00:00:46;;;;;;;;;;;8.90;99.90;;;;;;5111586;28;20006;-76
2021/05/20 00:03:11;;;;;;;;;;;8.90;99.90;;;;;;5108385;28;19912;-78
2021/05/20 00:05:37;;;;;;;;;;;8.80;99.90;;;;;;5093944;28;19958;-76
2021/05/20 00:08:03;;;;;;;;;;;8.80;99.90;;;;;;5087226;28;20012;-76
2021/05/20 00:10:28;;;;;;;;;;;8.70;99.90;;;;;;5087963;28;20357;-79
2021/05/20 00:12:54;;;;;;;;;;;8.60;99.90;;;;;;5080668;28;19912;-76
2021/05/20 00:15:19;;;;;;;;;;;8.60;99.90;;;;;;5096251;28;19908;-76
2021/05/20 00:17:45;;;;;;;;;;;8.60;99.90;;;;;;5087095;28;20002;-76
2021/05/20 00:20:11;;;;;;;;;;;8.60;99.90;;;;;;5089228;28;19916;-76
2021/05/20 00:22:36;;;;;;;;;;;8.50;99.90;;;;;;5082730;28;19912;-76
2021/05/20 00:25:03;;;;;;;;;;;8.40;99.90;;;;;;5106121;28;19980;-76
2021/05/20 00:27:29;;;;;;;;;;;8.40;99.90;;;;;;5110006;28;19908;-76
2021/05/20 00:29:54;;;;;;;;;;;8.30;99.90;;;;;;5087777;28;20007;-76
2021/05/20 00:32:20;;;;;;;;;;;8.20;99.90;;;;;;5107007;28;19914;-76
2021/05/20 00:34:45;;;;;;;;;;;8.20;99.90;;;;;;5111608;28;19939;-76
2021/05/20 00:37:11;;;;;;;;;;;8.10;99.90;;;;;;5086115;28;20939;-77
2021/05/20 00:39:37;;;;;;;;;;;8.10;99.90;;;;;;5092152;28;19912;-76
2021/05/20 00:42:06;;;;;;;;;;;8.00;99.90;;;;;;5094688;28;19912;-76
2021/05/20 00:44:31;;;;;;;;;;;8.00;99.90;;;;;;5093869;28;19942;-76
2021/05/20 00:46:57;;;;;;;;;;;8.00;99.90;;;;;;5094046;28;19952;-76
2021/05/20 00:49:22;;;;;;;;;;;7.90;99.90;;;;;;5095066;28;20302;-76
2021/05/20 00:51:48;;;;;;;;;;;7.90;99.90;;;;;;5094933;28;19912;-76
2021/05/20 00:54:13;;;;;;;;;;;7.90;99.90;;;;;;5083449;28;20437;-77
2021/05/20 00:56:39;;;;;;;;;;;7.90;99.90;;;;;;5093304;28;19912;-75
2021/05/20 00:59:05;;;;;;;;;;;7.90;99.90;;;;;;5091454;28;19961;-76
2021/05/20 01:01:31;;;;;;;;;;;7.90;99.90;;;;;;5091762;28;19969;-76
2021/05/20 01:03:57;;;;;;;;;;;7.90;99.90;;;;;;5093258;28;19919;-76
2021/05/20 01:06:23;;;;;;;;;;;8.00;99.90;;;;;;5089790;28;19913;-76
2021/05/20 01:08:48;;;;;;;;;;;7.90;99.90;;;;;;5094399;28;19915;-76
2021/05/20 01:11:14;;;;;;;;;;;7.90;99.90;;;;;;5094269;28;19909;-78
2021/05/20 01:13:39;;;;;;;;;;;7.90;99.90;;;;;;5091785;28;19909;-76
2021/05/20 01:16:12;;;;;;;;;;;7.90;99.90;;;;;;5093058;28;20027;-76
2021/05/20 01:18:37;;;;;;;;;;;7.80;99.90;;;;;;5094279;28;19908;-76
2021/05/20 01:21:03;;;;;;;;;;;7.80;99.90;;;;;;5094383;28;19962;-76
2021/05/20 01:23:28;;;;;;;;;;;7.80;99.90;;;;;;5094028;28;19965;-76
2021/05/20 01:25:54;;;;;;;;;;;7.70;99.90;;;;;;5093342;28;19912;-78
2021/05/20 01:28:20;;;;;;;;;;;7.70;99.90;;;;;;5094014;28;20258;-76
2021/05/20 01:30:47;;;;;;;;;;;7.70;99.90;;;;;;5093884;28;19908;-76
2021/05/20 01:33:12;;;;;;;;;;;7.60;99.90;;;;;;5093923;28;20444;-77
2021/05/20 01:35:38;;;;;;;;;;;7.50;99.90;;;;;;5093458;28;19950;-76
2021/05/20 01:38:15;;;;;;;;;;;7.40;99.90;;;;;;5092154;28;19945;-77
2021/05/20 01:40:40;;;;;;;;;;;7.40;99.90;;;;;;5093826;28;19908;-78
2021/05/20 01:43:06;;;;;;;;;;;7.30;99.90;;;;;;5093558;28;19965;-76
2021/05/20 01:45:31;;;;;;;;;;;7.30;99.90;;;;;;5092825;28;19908;-76
2021/05/20 01:47:57;;;;;;;;;;;7.20;99.90;;;;;;5093098;28;19950;-76
2021/05/20 01:50:24;;;;;;;;;;;7.10;99.90;;;;;;5093328;28;20021;-76
2021/05/20 01:52:50;;;;;;;;;;;7.10;99.90;;;;;;5094002;28;20361;-76
2021/05/20 01:55:15;;;;;;;;;;;7.10;99.90;;;;;;5089572;28;19908;-76
2021/05/20 01:57:41;;;;;;;;;;;7.10;99.90;;;;;;5092436;28;20016;-77
2021/05/20 02:00:08;;;;;;;;;;;7.10;99.90;;;;;;5091986;28;19908;-76
2021/05/20 02:02:33;;;;;;;;;;;7.00;99.90;;;;;;5093788;28;19973;-76
2021/05/20 02:04:59;;;;;;;;;;;7.00;99.90;;;;;;5093322;28;19951;-78
2021/05/20 02:07:24;;;;;;;;;;;7.00;99.90;;;;;;5092206;28;20364;-76
2021/05/20 02:09:50;;;;;;;;;;;7.00;99.90;;;;;;5093252;28;19908;-76
2021/05/20 02:12:15;;;;;;;;;;;7.10;99.90;;;;;;5093185;28;19914;-77
2021/05/20 02:14:41;;;;;;;;;;;7.10;99.90;;;;;;5104645;28;19912;-76
2021/05/20 02:17:06;;;;;;;;;;;7.10;99.90;;;;;;5112278;28;19908;-75
2021/05/20 02:19:32;;;;;;;;;;;7.20;99.90;;;;;;5113434;28;19912;-75
2021/05/20 02:21:57;;;;;;;;;;;7.30;99.90;;;;;;5113325;28;19953;-77
2021/05/20 02:24:23;;;;;;;;;;;7.30;99.90;;;;;;5112022;28;19911;-75
2021/05/20 02:26:48;;;;;;;;;;;7.40;99.90;;;;;;5110886;28;20416;-75
2021/05/20 02:29:14;;;;;;;;;;;7.50;99.90;;;;;;5111542;28;19946;-76
2021/05/20 02:31:39;;;;;;;;;;;7.50;99.90;;;;;;5112123;28;19994;-76
2021/05/20 02:34:05;;;;;;;;;;;7.50;99.90;;;;;;5113253;28;19914;-76
2021/05/20 02:36:30;;;;;;;;;;;7.50;99.90;;;;;;5112026;28;19926;-76
2021/05/20 02:38:56;;;;;;;;;;;7.50;99.90;;;;;;5112976;28;19920;-78
2021/05/20 02:41:21;;;;;;;;;;;7.50;99.90;;;;;;5113069;28;19919;-76
2021/05/20 02:43:47;;;;;;;;;;;7.50;99.90;;;;;;5108071;28;19955;-76
2021/05/20 02:46:12;;;;;;;;;;;7.50;99.90;;;;;;5099655;28;19915;-76
2021/05/20 02:48:38;;;;;;;;;;;7.40;99.90;;;;;;5092076;28;19908;-76
2021/05/20 02:51:03;;;;;;;;;;;7.40;99.90;;;;;;5092357;28;19912;-75
2021/05/20 02:53:29;;;;;;;;;;;7.40;99.90;;;;;;5092329;28;19909;-76
2021/05/20 02:55:54;;;;;;;;;;;7.40;99.90;;;;;;5090133;28;19912;-76
2021/05/20 02:58:21;;;;;;;;;;;7.40;99.90;;;;;;5092360;28;19908;-76
2021/05/20 03:00:47;;;;;;;;;;;7.50;99.90;;;;;;5092089;28;20293;-77
2021/05/20 03:03:13;;;;;;;;;;;7.50;99.90;;;;;;5090934;28;19912;-76
2021/05/20 03:05:39;;;;;;;;;;;7.50;99.90;;;;;;5091243;28;19915;-76
2021/05/20 03:08:04;;;;;;;;;;;7.50;99.90;;;;;;5092170;28;19912;-77
2021/05/20 03:10:30;;;;;;;;;;;7.50;99.90;;;;;;5092022;28;20550;-75
2021/05/20 03:12:56;;;;;;;;;;;7.50;99.90;;;;;;5092238;28;19919;-76
2021/05/20 03:15:21;;;;;;;;;;;7.50;99.90;;;;;;5091026;28;19939;-76
2021/05/20 03:17:47;;;;;;;;;;;7.50;99.90;;;;;;5091085;28;19953;-77
2021/05/20 03:20:13;;;;;;;;;;;7.50;99.90;;;;;;5091948;28;19909;-76
2021/05/20 03:22:38;;;;;;;;;;;7.60;99.90;;;;;;5091875;28;19912;-75
2021/05/20 03:25:04;;;;;;;;;;;7.60;99.90;;;;;;5091862;28;19908;-76
2021/05/20 03:27:30;;;;;;;;;;;7.60;99.90;;;;;;5090784;28;19908;-76
2021/05/20 03:29:55;;;;;;;;;;;7.60;99.90;;;;;;5091507;28;20388;-76
2021/05/20 03:32:21;;;;;;;;;;;7.50;99.90;;;;;;5091667;28;20002;-75
2021/05/20 03:34:46;;;;;;;;;;;7.50;99.90;;;;;;5091514;28;19908;-75
2021/05/20 03:37:12;;;;;;;;;;;7.50;99.90;;;;;;5090467;28;19924;-75
2021/05/20 03:39:37;;;;;;;;;;;7.40;99.90;;;;;;5091297;28;20296;-78
2021/05/20 03:42:03;;;;;;;;;;;7.50;99.90;;;;;;5091708;28;20272;-75
2021/05/20 03:44:30;;;;;;;;;;;7.50;99.90;;;;;;5090796;28;20319;-75
2021/05/20 03:46:55;;;;;;;;;;;7.50;99.90;;;;;;5089024;28;19918;-76
2021/05/20 03:49:21;;;;;;;;;;;7.50;99.90;;;;;;5089772;28;19912;-75
2021/05/20 03:51:46;;;;;;;;;;;7.50;99.90;;;;;;5091100;28;19919;-75
2021/05/20 03:54:12;;;;;;;;;;;7.50;99.90;;;;;;5091217;28;20011;-76
2021/05/20 03:56:38;;;;;;;;;;;7.50;99.90;;;;;;5090355;28;19909;-77
2021/05/20 03:59:03;;;;;;;;;;;7.50;99.90;;;;;;5091239;28;19960;-75
2021/05/20 04:01:29;;;;;;;;;;;7.50;99.90;;;;;;5091040;28;19999;-76
2021/05/20 04:03:54;;;;;;;;;;;7.50;99.90;;;;;;5090890;28;19916;-75
2021/05/20 04:06:20;;;;;;;;;;;7.50;99.90;;;;;;5090175;28;19930;-77
2021/05/20 04:08:45;;;;;;;;;;;7.50;99.90;;;;;;5091322;28;19916;-75
2021/05/20 04:11:11;;;;;;;;;;;7.50;99.90;;;;;;5091057;28;20436;-75
2021/05/20 04:13:37;;;;;;;;;;;7.40;99.90;;;;;;5090413;28;19912;-76
2021/05/20 04:16:03;;;;;;;;;;;7.40;99.90;;;;;;5089475;28;19908;-75
2021/05/20 04:18:29;;;;;;;;;;;7.40;99.90;;;;;;5090844;28;19915;-75
2021/05/20 04:20:54;;;;;;;;;;;7.40;99.90;;;;;;5090986;28;19915;-76
2021/05/20 04:23:20;;;;;;;;;;;7.40;99.90;;;;;;5090565;28;19916;-75
2021/05/20 04:25:46;;;;;;;;;;;7.40;99.90;;;;;;5088600;28;20190;-75
2021/05/20 04:28:12;;;;;;;;;;;7.50;99.90;;;;;;5089556;28;19930;-75
2021/05/20 04:30:38;;;;;;;;;;;7.50;99.90;;;;;;5090625;28;19954;-75
2021/05/20 04:33:04;;;;;;;;;;;7.50;99.90;;;;;;5090688;28;20289;-75
2021/05/20 04:35:29;;;;;;;;;;;7.60;99.90;;;;;;5090703;28;19915;-75
2021/05/20 04:37:55;;;;;;;;;;;7.60;99.90;;;;;;5088282;28;20349;-77
2021/05/20 04:40:20;;;;;;;;;;;7.70;99.90;;;;;;5090903;28;19912;-78
2021/05/20 04:42:46;;;;;;;;;;;7.70;99.90;;;;;;5090745;28;20345;-75
2021/05/20 04:45:12;;;;;;;;;;;7.70;99.90;;;;;;5090027;28;19912;-76
2021/05/20 04:47:37;;;;;;;;;;;7.80;99.90;;;;;;5089445;28;20290;-75
2021/05/20 04:50:03;;;;;;;;;;;7.70;99.90;;;;;;5090567;28;19916;-76
2021/05/20 04:52:29;;;;;;;;;;;7.70;99.90;;;;;;5090602;28;19953;-77
2021/05/20 04:54:54;;;;;;;;;;;7.80;99.90;;;;;;5090625;28;19908;-75
2021/05/20 04:57:20;;;;;;;;;;;7.80;99.90;;;;;;5089562;28;20353;-75
2021/05/20 04:59:45;;;;;;;;;;;7.80;99.90;;;;;;5090305;28;20002;-75
2021/05/20 05:02:11;;;;;;;;;;;7.90;99.90;;;;;;5090862;28;20269;-76
2021/05/20 05:04:36;;;;;;;;;;;8.00;99.90;;;;;;5090343;28;19916;-75
2021/05/20 05:07:02;;;;;;;;;;;8.10;99.90;;;;;;5089485;28;19961;-77
2021/05/20 05:09:27;;;;;;;;;;;8.10;99.90;;;;;;5090407;28;19915;-77
2021/05/20 05:11:53;;;;;;;;;;;8.10;99.90;;;;;;5090551;28;20275;-75
2021/05/20 05:14:18;;;;;;;;;;;8.20;99.90;;;;;;5089952;28;19959;-75
2021/05/20 05:16:44;;;;;;;;;;;8.20;99.90;;;;;;5088896;28;19908;-76
2021/05/20 05:19:09;;;;;;;;;;;8.30;99.90;;;;;;5090239;28;19912;-76
2021/05/20 05:21:35;;;;;;;;;;;8.40;99.90;;;;;;5090372;28;19912;-75
2021/05/20 05:24:00;;;;;;;;;;;8.60;99.90;;;;;;5090669;28;19916;-75
2021/05/20 05:26:27;;;;;;;;;;;8.90;99.90;;;;;;5092231;28;19955;-79
2021/05/20 05:28:53;;;;;;;;;;;9.00;99.90;;;;;;5094175;28;19908;-75
2021/05/20 05:31:22;;;;;;;;;;;9.20;99.90;;;;;;5094378;28;20381;-76
2021/05/20 05:33:48;;;;;;;;;;;9.50;99.90;;;;;;5093356;28;19908;-74
2021/05/20 05:36:13;;;;;;;;;;;9.70;99.90;;;;;;5093194;28;19908;-75
2021/05/20 05:38:39;;;;;;;;;;;9.90;99.90;;;;;;5093695;28;20288;-76
2021/05/20 05:41:04;;;;;;;;;;;10.00;99.90;;;;;;5092731;28;19908;-75
2021/05/20 05:43:30;;;;;;;;;;;10.00;99.90;;;;;;5093567;28;20403;-74
2021/05/20 05:45:56;;;;;;;;;;;10.00;99.90;;;;;;5092447;28;19912;-75
2021/05/20 05:48:21;;;;;;;;;;;9.90;99.90;;;;;;5093750;28;19908;-75
2021/05/20 05:50:49;;;;;;;;;;;9.90;99.90;;;;;;5093738;28;19914;-76
2021/05/20 05:53:14;;;;;;;;;;;9.90;99.90;;;;;;5093674;28;19912;-74
2021/05/20 05:55:40;;;;;;;;;;;9.90;99.90;;;;;;5092746;28;19973;-75
2021/05/20 05:58:05;;;;;;;;;;;9.90;99.90;;;;;;5092319;28;19981;-76
2021/05/20 06:00:31;;;;;;;;;;;10.10;99.90;;;;;;5091842;28;19912;-75
2021/05/20 06:02:57;;;;;;;;;;;10.30;99.90;;;;;;5093483;28;19912;-76
2021/05/20 06:05:22;;;;;;;;;;;10.50;99.90;;;;;;5093176;28;19984;-75
2021/05/20 06:07:48;;;;;;;;;;;10.70;99.90;;;;;;5092377;28;20296;-76
2021/05/20 06:10:14;;;;;;;;;;;10.90;99.90;;;;;;5093757;28;20272;-75
2021/05/20 06:12:39;;;;;;;;;;;11.10;99.90;;;;;;5093441;28;19908;-76
2021/05/20 06:15:05;;;;;;;;;;;11.20;99.90;;;;;;5092712;28;19908;-75
2021/05/20 06:17:31;;;;;;;;;;;11.40;99.90;;;;;;5092278;28;19912;-74
2021/05/20 06:19:56;;;;;;;;;;;11.50;99.90;;;;;;5093420;28;19915;-76
2021/05/20 06:22:22;;;;;;;;;;;11.40;99.90;;;;;;5093332;28;20361;-76
2021/05/20 06:24:48;;;;;;;;;;;11.30;99.90;;;;;;5091931;28;20358;-76
2021/05/20 06:27:13;;;;;;;;;;;11.20;99.90;;;;;;5092215;28;19991;-76
2021/05/20 06:29:39;;;;;;;;;;;11.20;99.90;;;;;;5091820;28;19970;-76
2021/05/20 06:32:04;;;;;;;;;;;11.30;99.90;;;;;;5093157;28;19992;-76
2021/05/20 06:34:30;;;;;;;;;;;11.20;99.90;;;;;;5091972;28;19908;-76
2021/05/20 06:36:58;;;;;;;;;;;11.10;99.90;;;;;;5090606;28;19923;-75
2021/05/20 06:39:23;;;;;;;;;;;11.20;99.90;;;;;;5092982;28;19914;-77
2021/05/20 06:41:49;;;;;;;;;;;11.30;99.90;;;;;;5092987;28;19991;-75
2021/05/20 06:44:14;;;;;;;;;;;11.50;99.90;;;;;;5092638;28;19923;-75
2021/05/20 06:46:40;;;;;;;;;;;12.00;99.90;;;;;;5089955;28;19912;-76
2021/05/20 06:49:08;;;;;;;;;;;12.40;99.90;;;;;;5092545;28;19912;-79
2021/05/20 06:51:34;;;;;;;;;;;12.60;99.90;;;;;;5092780;28;19908;-76
2021/05/20 06:53:59;;;;;;;;;;;12.40;99.90;;;;;;5092864;28;20334;-76
2021/05/20 06:56:27;;;;;;;;;;;12.50;99.90;;;;;;5091798;28;20312;-76
2021/05/20 07:01:38;;;;;;;;;;;13.80;99.90;;;;;;5092679;28;19914;-76
2021/05/20 07:04:03;;;;;;;;;;;14.30;99.90;;;;;;5092469;28;19999;-75
2021/05/20 07:06:29;;;;;;;;;;;14.40;99.90;;;;;;5083103;28;20000;-73
2021/05/20 07:08:55;;;;;;;;;;;14.70;99.90;;;;;;5096095;28;20349;-74
2021/05/20 07:11:20;;;;;;;;;;;14.50;99.90;;;;;;5112583;28;19956;-76
2021/05/20 07:13:46;;;;;;;;;;;14.10;99.90;;;;;;5107714;28;19908;-75
2021/05/20 07:16:11;;;;;;;;;;;13.70;99.90;;;;;;5088368;28;20011;-75
2021/05/20 07:18:37;;;;;;;;;;;13.60;99.90;;;;;;5091010;28;19908;-78
2021/05/20 07:21:02;;;;;;;;;;;13.70;99.90;;;;;;5090208;28;19908;-79
2021/05/20 07:23:28;;;;;;;;;;;13.70;99.90;;;;;;5089558;28;19923;-76
2021/05/20 07:25:53;;;;;;;;;;;13.60;99.90;;;;;;5089231;28;21040;-76
2021/05/20 07:28:21;;;;;;;;;;;13.50;99.90;;;;;;5090229;28;19908;-76
2021/05/20 07:30:47;;;;;;;;;;;13.50;99.90;;;;;;5090013;28;19908;-75
2021/05/20 07:33:13;;;;;;;;;;;13.30;99.90;;;;;;5077890;28;19908;-79
2021/05/20 07:35:39;;;;;;;;;;;13.20;99.90;;;;;;5085465;28;20274;-78
2021/05/20 07:38:05;;;;;;;;;;;13.00;99.90;;;;;;5089826;28;20010;-76
2021/05/20 07:40:30;;;;;;;;;;;12.80;99.90;;;;;;5087678;28;19951;-75
2021/05/20 07:42:56;;;;;;;;;;;12.60;99.90;;;;;;5090658;28;20549;-76
2021/05/20 07:45:22;;;;;;;;;;;12.50;99.90;;;;;;5089434;28;19908;-76
2021/05/20 07:47:48;;;;;;;;;;;12.30;99.90;;;;;;5087482;28;20018;-75
2021/05/20 07:50:15;;;;;;;;;;;12.10;99.90;;;;;;5096008;28;21401;-75
2021/05/20 07:52:41;;;;;;;;;;;11.90;99.90;;;;;;5095617;28;19922;-76
2021/05/20 07:55:07;;;;;;;;;;;11.80;99.90;;;;;;5085495;28;19915;-75
2021/05/20 07:57:33;;;;;;;;;;;11.60;99.90;;;;;;5083344;28;20402;-75
2021/05/20 07:59:58;;;;;;;;;;;11.60;99.90;;;;;;5088290;28;20289;-75
2021/05/20 08:04:58;;;;;;;;;;;11.70;99.90;;;;;;5089231;28;19908;-75
2021/05/20 08:10:03;;;;;;;;;;;11.90;99.90;;;;;;5089212;28;19969;-75
2021/05/20 08:12:29;;;;;;;;;;;12.20;99.90;;;;;;5089511;28;20468;-75
2021/05/20 08:14:55;;;;;;;;;;;12.70;99.90;;;;;;5090819;28;19958;-75
2021/05/20 08:17:20;;;;;;;;;;;13.40;99.90;;;;;;5088310;28;19908;-73
2021/05/20 08:19:45;;;;;;;;;;;14.10;99.90;;;;;;5086345;28;19908;-77
2021/05/20 08:22:11;;;;;;;;;;;14.30;99.90;;;;;;5086239;28;20585;-74
2021/05/20 08:24:36;;;;;;;;;;;14.50;99.90;;;;;;5090948;28;19923;-74
2021/05/20 08:27:02;;;;;;;;;;;14.60;99.90;;;;;;5089955;28;19930;-75
2021/05/20 08:29:29;;;;;;;;;;;14.60;99.90;;;;;;5089885;28;19991;-75
2021/05/20 08:31:54;;;;;;;;;;;14.80;99.90;;;;;;5090701;28;19915;-74
2021/05/20 08:34:20;;;;;;;;;;;14.90;99.90;;;;;;5090756;28;19912;-77
2021/05/20 08:36:45;;;;;;;;;;;15.00;99.90;;;;;;5089731;28;19940;-74
2021/05/20 08:39:12;;;;;;;;;;;15.40;99.90;;;;;;5089165;28;19970;-74
2021/05/20 08:41:38;;;;;;;;;;;15.70;99.90;;;;;;5090945;28;19908;-75
2021/05/20 08:44:14;;;;;;;;;;;16.00;99.90;;;;;;5089032;28;19916;-75
2021/05/20 08:46:40;;;;;;;;;;;16.50;99.90;;;;;;5089267;28;20254;-74
2021/05/20 08:49:06;;;;;;;;;;;17.20;99.90;;;;;;5090008;28;19987;-74
2021/05/20 08:51:32;;;;;;;;;;;17.80;98.50;;;;;;5090243;28;20388;-74
2021/05/20 08:53:58;;;;;;;;;;;17.80;98.10;;;;;;5090117;28;19920;-75
2021/05/20 08:56:25;;;;;;;;;;;17.60;97.20;;;;;;5089464;28;19908;-74
2021/05/20 08:58:52;;;;;;;;;;;17.60;96.80;;;;;;5090579;28;19971;-76
2021/05/20 09:01:37;;;;;;;;;;;17.40;97.10;;;;;;5093358;28;19954;-74
2021/05/20 09:04:03;;;;;;;;;;;17.30;95.80;;;;;;5092125;28;20011;-74
2021/05/20 09:06:34;;;;;;;;;;;16.90;96.10;;;;;;5090401;28;20213;-74
2021/05/20 09:09:00;;;;;;;;;;;16.70;95.80;;;;;;5094090;28;19908;-73
2021/05/20 09:11:25;;;;;;;;;;;16.60;96.60;;;;;;5094608;28;19909;-74
2021/05/20 09:13:51;;;;;;;;;;;16.50;96.50;;;;;;5094106;28;19957;-74
2021/05/20 09:16:16;;;;;;;;;;;16.60;97.10;;;;;;5093005;28;19908;-74
2021/05/20 09:18:42;;;;;;;;;;;16.80;97.30;;;;;;5094190;28;19908;-74
2021/05/20 09:21:09;;;;;;;;;;;17.10;96.10;;;;;;5094367;28;20379;-74
2021/05/20 09:23:45;;;;;;;;;;;17.40;96.00;;;;;;5093091;28;20001;-74
2021/05/20 09:26:11;;;;;;;;;;;17.50;95.80;;;;;;5093313;28;20361;-74
2021/05/20 09:28:42;;;;;;;;;;;17.90;96.30;;;;;;5093002;28;20270;-74
2021/05/20 09:31:12;;;;;;;;;;;18.50;95.30;;;;;;5093512;28;19915;-75
2021/05/20 09:33:37;;;;;;;;;;;18.40;93.20;;;;;;5094009;28;19940;-74
2021/05/20 09:36:03;;;;;;;;;;;18.60;95.30;;;;;;5092768;28;20002;-74
2021/05/20 09:38:29;;;;;;;;;;;18.90;92.70;;;;;;5093270;28;19922;-74
2021/05/20 09:40:56;;;;;;;;;;;19.30;92.80;;;;;;5092180;28;19999;-74
2021/05/20 09:43:34;;;;;;;;;;;19.50;91.60;;;;;;5093149;28;20031;-74
2021/05/20 09:46:04;;;;;;;;;;;19.70;91.10;;;;;;5091026;28;20312;-75
2021/05/20 09:48:33;;;;;;;;;;;19.90;89.00;;;;;;5093782;28;20445;-74
2021/05/20 09:50:59;;;;;;;;;;;20.00;89.50;;;;;;5093914;28;19912;-74
2021/05/20 09:53:25;;;;;;;;;;;20.00;88.00;;;;;;5094071;28;20357;-74
2021/05/20 09:55:55;;;;;;;;;;;20.00;91.10;;;;;;5092892;28;19956;-74
2021/05/20 09:58:26;;;;;;;;;;;19.90;91.50;;;;;;5092722;28;20074;-75
2021/05/20 10:00:52;;;;;;;;;;;19.90;91.40;;;;;;5091692;28;20067;-74
2021/05/20 10:03:20;;;;;;;;;;;19.80;91.90;;;;;;5091285;28;19912;-76
2021/05/20 10:05:47;;;;;;;;;;;19.60;91.60;;;;;;5092355;28;19961;-75
2021/05/20 10:08:14;;;;;;;;;;;19.60;90.80;;;;;;5109622;28;19908;-76
2021/05/20 10:10:40;;;;;;;;;;;19.80;91.30;;;;;;5111179;28;19908;-75
2021/05/20 10:13:10;;;;;;;;;;;19.70;90.80;;;;;;5113253;28;19908;-74
2021/05/20 10:15:37;;;;;;;;;;;19.50;90.30;;;;;;5090544;28;19973;-74
2021/05/20 10:18:05;;;;;;;;;;;19.10;89.60;;;;;;5093032;28;19995;-74
2021/05/20 10:20:30;;;;;;;;;;;18.70;90.40;;;;;;5093180;28;20323;-74
2021/05/20 10:22:56;;;;;;;;;;;18.50;91.00;;;;;;5093101;28;19916;-77
2021/05/20 10:25:22;;;;;;;;;;;18.00;91.50;;;;;;5091260;28;20369;-74
2021/05/20 10:27:47;;;;;;;;;;;17.70;92.10;;;;;;5090912;28;19908;-74
2021/05/20 10:30:15;;;;;;;;;;;17.60;91.90;;;;;;5080254;28;20522;-75
2021/05/20 10:32:40;;;;;;;;;;;17.30;91.50;;;;;;5084348;28;19914;-74
2021/05/20 10:35:10;;;;;;;;;;;17.20;92.60;;;;;;5096138;28;19908;-74
2021/05/20 10:37:40;;;;;;;;;;;17.00;91.20;;;;;;5095761;28;20000;-74
2021/05/20 10:40:08;;;;;;;;;;;16.80;90.50;;;;;;5106955;28;19947;-75
2021/05/20 10:42:38;;;;;;;;;;;16.80;91.60;;;;;;5089829;28;19908;-74
2021/05/20 10:45:13;;;;;;;;;;;17.00;91.60;;;;;;5085094;28;19913;-74
2021/05/20 10:47:57;;;;;;;;;;;17.10;90.30;;;;;;5096168;28;19915;-76
2021/05/20 10:50:43;;;;;;;;;;;17.50;93.10;;;;;;5087417;28;19912;-74
2021/05/20 10:53:08;;;;;;;;;;;17.70;90.30;;;;;;5072663;28;19908;-74
2021/05/20 10:55:36;;;;;;;;;;;17.70;91.10;;;;;;5090364;28;19953;-75
2021/05/20 10:58:01;;;;;;;;;;;17.70;88.90;;;;;;5095048;28;20407;-76
2021/05/20 11:00:30;;;;;;;;;;;18.10;91.20;;;;;;5083744;28;19908;-75
2021/05/20 11:02:56;;;;;;;;;;;18.20;88.50;;;;;;5093726;28;20431;-77
2021/05/20 11:05:39;;;;;;;;;;;18.20;87.40;;;;;;5088837;28;19918;-74
2021/05/20 11:08:28;;;;;;;;;;;18.10;89.90;;;;;;5089336;28;20027;-74
2021/05/20 11:10:54;;;;;;;;;;;17.60;91.50;;;;;;5051836;28;19916;-75
2021/05/20 11:13:46;;;;;;;;;;;16.90;90.90;;;;;;5084080;28;19914;-74
2021/05/20 11:16:18;;;;;;;;;;;16.20;91.80;;;;;;5074527;28;20264;-74
2021/05/20 11:18:49;;;;;;;;;;;15.90;93.80;;;;;;5081248;28;19986;-78
2021/05/20 11:21:15;;;;;;;;;;;15.60;93.00;;;;;;5090046;28;20617;-75
2021/05/20 11:23:40;;;;;;;;;;;15.60;92.90;;;;;;5088281;28;20010;-75
2021/05/20 11:26:10;;;;;;;;;;;15.60;93.80;;;;;;5088207;28;20003;-74
2021/05/20 11:28:40;;;;;;;;;;;15.70;93.90;;;;;;5089319;28;19916;-76
2021/05/20 11:31:05;;;;;;;;;;;15.80;93.70;;;;;;5080073;28;20384;-74
2021/05/20 11:33:36;;;;;;;;;;;15.90;92.60;;;;;;5089443;28;19912;-74
2021/05/20 11:38:28;;;;;;;;;;;15.90;93.40;;;;;;5088767;28;19920;-76
2021/05/20 11:40:55;;;;;;;;;;;16.00;93.90;;;;;;5081959;28;19916;-75
2021/05/20 11:43:27;;;;;;;;;;;16.20;93.40;;;;;;5082322;28;19912;-74
2021/05/20 11:45:52;;;;;;;;;;;16.40;92.30;;;;;;5078338;28;19912;-74
2021/05/20 11:48:18;;;;;;;;;;;16.70;92.90;;;;;;5077970;28;20090;-75
2021/05/20 11:50:53;;;;;;;;;;;17.40;93.60;;;;;;5082230;28;20379;-78
2021/05/20 11:53:19;;;;;;;;;;;18.10;92.90;;;;;;5084389;28;19939;-78
2021/05/20 11:55:46;;;;;;;;;;;18.70;91.30;;;;;;5086227;28;19915;-76
2021/05/20 11:58:12;;;;;;;;;;;19.20;88.90;;;;;;5085513;28;19912;-75
2021/05/20 12:00:38;;;;;;;;;;;19.80;91.40;;;;;;5085912;28;19931;-75
2021/05/20 12:03:04;;;;;;;;;;;20.50;88.90;;;;;;5077807;28;19912;-75
2021/05/20 12:05:29;;;;;;;;;;;20.80;86.90;;;;;;5084005;28;19912;-77
2021/05/20 12:07:55;;;;;;;;;;;21.10;84.70;;;;;;5090044;28;19908;-78
2021/05/20 12:10:21;;;;;;;;;;;21.40;85.00;;;;;;5086262;28;19923;-74
2021/05/20 12:13:00;;;;;;;;;;;21.40;81.80;;;;;;5077897;28;19908;-78
2021/05/20 12:15:26;;;;;;;;;;;21.10;83.50;;;;;;5076247;28;20008;-76
2021/05/20 12:17:54;;;;;;;;;;;20.60;83.20;;;;;;5080459;28;20258;-75
2021/05/20 12:20:20;;;;;;;;;;;20.30;84.80;;;;;;5079919;28;20023;-75
2021/05/20 12:22:45;;;;;;;;;;;19.90;86.80;;;;;;5086331;28;20434;-76
2021/05/20 12:25:13;;;;;;;;;;;19.30;90.60;;;;;;5084896;28;20387;-74
2021/05/20 12:27:39;;;;;;;;;;;18.70;90.90;;;;;;5088721;28;19957;-74
2021/05/20 12:30:06;;;;;;;;;;;18.30;91.50;;;;;;5081581;28;19912;-74
2021/05/20 12:32:36;;;;;;;;;;;17.80;91.00;;;;;;5088548;28;20293;-77
2021/05/20 12:35:08;;;;;;;;;;;17.30;91.10;;;;;;5088241;28;19955;-77
2021/05/20 12:37:47;;;;;;;;;;;17.00;92.30;;;;;;5086743;28;19916;-75
2021/05/20 12:40:14;;;;;;;;;;;16.90;92.70;;;;;;5087978;28;19915;-74
2021/05/20 12:42:39;;;;;;;;;;;16.60;92.20;;;;;;5089528;28;19908;-74
2021/05/20 12:45:05;;;;;;;;;;;16.40;92.80;;;;;;5087036;28;19912;-74
2021/05/20 12:47:32;;;;;;;;;;;16.30;93.00;;;;;;5088559;28;19911;-77
2021/05/20 12:49:58;;;;;;;;;;;16.30;93.30;;;;;;5085282;28;19954;-74
2021/05/20 12:52:23;;;;;;;;;;;16.30;93.50;;;;;;5091003;28;19943;-74
2021/05/20 12:54:49;;;;;;;;;;;16.40;94.30;;;;;;5090845;28;19954;-74
2021/05/20 12:57:14;;;;;;;;;;;16.70;95.10;;;;;;5089595;28;20330;-76
2021/05/20 12:59:41;;;;;;;;;;;17.10;93.10;;;;;;5086109;28;19931;-74
2021/05/20 13:02:18;;;;;;;;;;;17.70;92.60;;;;;;5090669;28;19908;-78
2021/05/20 13:04:43;;;;;;;;;;;18.60;92.80;;;;;;5087223;28;20417;-74
2021/05/20 13:07:11;;;;;;;;;;;19.40;91.80;;;;;;5088898;28;19988;-75
2021/05/20 13:09:41;;;;;;;;;;;20.00;89.00;;;;;;5089743;28;19908;-75
2021/05/20 13:12:16;;;;;;;;;;;20.00;83.20;;;;;;5085996;28;20263;-74
2021/05/20 13:15:00;;;;;;;;;;;19.70;84.80;;;;;;5087589;28;20376;-74
2021/05/20 13:17:46;;;;;;;;;;;19.30;87.70;;;;;;5079822;28;19909;-78
2021/05/20 13:22:59;;;;;;;;;;;18.60;87.40;;;;;;5071825;28;19922;-78
2021/05/20 13:25:24;;;;;;;;;;;18.40;86.60;;;;;;5081947;28;19908;-75
2021/05/20 13:27:51;;;;;;;;;;;18.20;86.00;;;;;;5069448;28;19908;-74
2021/05/20 13:30:24;;;;;;;;;;;18.10;90.00;;;;;;5070684;28;20353;-74
2021/05/20 13:32:55;;;;;;;;;;;18.50;89.60;;;;;;5068368;28;20400;-75
2021/05/20 13:35:21;;;;;;;;;;;19.10;86.30;;;;;;5068061;28;20392;-75
2021/05/20 13:37:46;;;;;;;;;;;19.70;84.20;;;;;;5069579;28;19916;-71
2021/05/20 13:40:19;;;;;;;;;;;20.20;83.60;;;;;;5070492;28;19916;-71
2021/05/20 13:42:46;;;;;;;;;;;20.30;81.30;;;;;;5070283;28;19912;-71
2021/05/20 13:45:12;;;;;;;;;;;20.00;79.50;;;;;;5086349;28;19912;-75
2021/05/20 13:47:37;;;;;;;;;;;19.60;82.70;;;;;;5092102;28;20308;-72
2021/05/20 13:50:03;;;;;;;;;;;19.10;83.20;;;;;;5094198;28;20006;-71
2021/05/20 13:52:30;;;;;;;;;;;18.60;86.00;;;;;;5094062;28;19914;-71
2021/05/20 13:54:56;;;;;;;;;;;18.20;87.40;;;;;;5094095;28;19912;-73
2021/05/20 13:57:22;;;;;;;;;;;17.90;89.30;;;;;;5092273;28;19912;-71
2021/05/20 13:59:47;;;;;;;;;;;17.70;90.00;;;;;;5090765;28;19930;-72
2021/05/20 14:02:30;;;;;;;;;;;17.50;90.10;;;;;;5093646;28;19909;-71
2021/05/20 14:04:55;;;;;;;;;;;17.50;90.00;;;;;;5093901;28;20619;-71
2021/05/20 14:07:21;;;;;;;;;;;17.50;88.70;;;;;;5092582;28;20003;-71
2021/05/20 14:09:47;;;;;;;;;;;17.50;88.20;;;;;;5093809;28;19909;-72
2021/05/20 14:12:16;;;;;;;;;;;17.60;90.40;;;;;;5093741;28;20361;-71
2021/05/20 14:14:44;;;;;;;;;;;17.30;88.30;;;;;;5092017;28;19973;-71
2021/05/20 14:17:10;;;;;;;;;;;17.10;90.40;;;;;;5092317;28;19954;-74
2021/05/20 14:19:36;;;;;;;;;;;17.10;90.60;;;;;;5093555;28;19908;-71
2021/05/20 14:22:03;;;;;;;;;;;17.30;91.30;;;;;;5085956;28;19920;-71
2021/05/20 14:24:28;;;;;;;;;;;17.40;91.20;;;;;;5081116;28;20362;-74
2021/05/20 14:26:54;;;;;;;;;;;17.60;91.70;;;;;;5074341;28;19920;-74
2021/05/20 14:29:20;;;;;;;;;;;17.80;90.40;;;;;;5082406;28;19912;-73
2021/05/20 14:31:47;;;;;;;;;;;17.80;90.10;;;;;;5090646;28;19908;-71